Fidato — PB5970 — position and weather

sailwx.info

Track history (hours):
 
Tides and Currents Weather Stations Pressure Air Temp Water Temp Dewpoint Dewpoint Depression Visibility Wind Speed Wind Dir Waves Ship Positions

Fidato

Last reported at 2016-Dec-08 08:04 UTC. Time now 2016-Dec-09 05:51 UTC.
Position N 50°41' E 007°11'.

Length 135 m; draft 2.5 m.

Type: Ship. MMSI: 244670975.

Date/timePositionNaut miles runAvg speedWind from/ knotsBaromVisibWave heightAir tempDewpointWater temp
2016-Dec-08 08:04N 50°41' E 007°11'3 5.3
2016-Dec-08 07:33N 50°43' E 007°08'5 5.0
2016-Dec-08 06:33N 50°47' E 007°03'4 4.2
2016-Dec-08 05:29N 50°51' E 006°60'3 3.0
2016-Dec-08 04:33N 50°54' E 007°01'2 2.5
2016-Dec-08 03:34N 50°55' E 006°58'0 0.0
2016-Dec-08 02:32N 50°55' E 006°58'0 0.0
2016-Dec-08 01:31N 50°55' E 006°58'0 0.0
2016-Dec-08 00:30N 50°55' E 006°58'0 0.0
2016-Dec-07 23:29N 50°55' E 006°58'0 0.0
2016-Dec-07 22:32N 50°55' E 006°58'2 2.0
2016-Dec-07 21:32N 50°57' E 006°59'34 3.6
2016-Dec-07 12:07N 51°30' E 006°42'2 3.6
2016-Dec-07 11:32N 51°32' E 006°41'4 3.6
2016-Dec-07 10:32N 51°34' E 006°37'5 5.3
2016-Dec-07 09:33N 51°39' E 006°36'6 5.5
2016-Dec-07 08:32N 51°42' E 006°28'5 4.9
2016-Dec-07 07:33N 51°45' E 006°23'6 6.5
2016-Dec-07 06:33N 51°50' E 006°15'6 6.3
2016-Dec-07 05:34N 51°51' E 006°05'6 6.4
2016-Dec-07 04:33N 51°56' E 005°58'3 3.2
2016-Dec-07 03:33N 51°58' E 005°55'0 0.0
2016-Dec-07 02:33N 51°58' E 005°55'0 0.0
2016-Dec-07 01:34N 51°58' E 005°55'0 0.0
2016-Dec-07 00:34N 51°58' E 005°55'0 0.0
2016-Dec-06 23:34N 51°58' E 005°55'0 0.0
2016-Dec-06 22:33N 51°58' E 005°55'0 0.0
2016-Dec-06 21:33N 51°58' E 005°55'1 1.5
2016-Dec-06 20:33N 51°59' E 005°53'10 4.9
2016-Dec-06 18:34N 51°56' E 005°37'7 7.1
2016-Dec-06 17:30N 51°59' E 005°26'4 3.9
2016-Dec-06 16:34N 51°58' E 005°20'2 1.7
2016-Dec-06 15:34N 51°58' E 005°18'8 7.6
2016-Dec-06 14:34N 52°02' E 005°07'8 7.7
2016-Dec-06 13:33N 52°09' E 005°01'8 7.7
2016-Dec-06 12:33N 52°16' E 005°01'7 7.2
2016-Dec-06 11:33N 52°23' E 004°56'7 7.3
2016-Dec-06 10:33N 52°26' E 004°45'6 5.5
2016-Dec-06 09:33N 52°28' E 004°37'1 1.3
2016-Dec-06 08:33N 52°28' E 004°35'0 0.1
2016-Dec-06 07:33N 52°28' E 004°35'0 0.1
2016-Dec-06 06:33N 52°28' E 004°35'1 0.5
2016-Dec-06 05:33N 52°28' E 004°36'0 0.0
2016-Dec-06 04:33N 52°28' E 004°36'0 0.0
2016-Dec-06 03:33N 52°28' E 004°36'0 0.0
2016-Dec-06 02:33N 52°28' E 004°36'0 0.0
2016-Dec-06 01:33N 52°28' E 004°36'0 0.0
2016-Dec-06 00:33N 52°28' E 004°36'0 0.0
2016-Dec-05 23:33N 52°28' E 004°36'0 0.0
2016-Dec-05 22:33N 52°28' E 004°36'0 0.0
2016-Dec-05 21:33N 52°28' E 004°36'0 0.0
2016-Dec-05 20:33N 52°28' E 004°36'0 0.0
2016-Dec-05 19:33N 52°28' E 004°36'0 0.0
2016-Dec-05 18:33N 52°28' E 004°36'1 0.5
2016-Dec-05 17:33N 52°28' E 004°37'0 0.3
2016-Dec-05 16:33N 52°28' E 004°37'1 1.1
2016-Dec-05 15:33N 52°28' E 004°39'7 7.2
2016-Dec-05 14:34N 52°25' E 004°50'2 1.6
2016-Dec-05 13:33N 52°24' E 004°52'0 0.0
2016-Dec-05 12:34N 52°24' E 004°52'0 0.1
2016-Dec-05 11:34N 52°24' E 004°52'0 0.1
2016-Dec-05 10:34N 52°25' E 004°52'0 0.0
2016-Dec-05 09:33N 52°25' E 004°52'0 0.0
2016-Dec-05 08:33N 52°25' E 004°52'0 0.2
2016-Dec-05 07:33N 52°25' E 004°52'0 0.0
2016-Dec-05 06:34N 52°25' E 004°52'0 0.0
2016-Dec-05 05:34N 52°25' E 004°52'0 0.0
2016-Dec-05 04:33N 52°25' E 004°52'0 0.0
2016-Dec-05 03:34N 52°25' E 004°52'0 0.0
2016-Dec-05 02:34N 52°25' E 004°52'0 0.0
2016-Dec-05 01:33N 52°25' E 004°52'0 0.0
2016-Dec-05 00:33N 52°25' E 004°52'0 0.0
2016-Dec-04 23:34N 52°25' E 004°52'0 0.0
2016-Dec-04 22:34N 52°25' E 004°52'0 0.0
2016-Dec-04 21:34N 52°25' E 004°52'0 0.0
2016-Dec-04 20:34N 52°25' E 004°52'0 0.0
2016-Dec-04 19:33N 52°25' E 004°52'0 0.0
2016-Dec-04 18:34N 52°25' E 004°52'0 0.0
2016-Dec-04 17:34N 52°25' E 004°52'0 0.0
2016-Dec-04 16:33N 52°25' E 004°52'0 0.0
2016-Dec-04 15:34N 52°25' E 004°52'0 0.0
2016-Dec-04 14:34N 52°25' E 004°52'0 0.0
2016-Dec-04 13:33N 52°25' E 004°52'0 0.0
2016-Dec-04 12:34N 52°25' E 004°52'5 4.9
2016-Dec-04 11:34N 52°21' E 004°58'7 7.0
2016-Dec-04 10:33N 52°14' E 005°01'7 6.7
2016-Dec-04 09:34N 52°08' E 005°03'7 6.5
2016-Dec-04 08:33N 52°02' E 005°07'0 0.0
2016-Dec-04 07:34N 52°02' E 005°07'0 0.0
2016-Dec-04 06:34N 52°02' E 005°07'0 0.0
2016-Dec-04 05:33N 52°02' E 005°07'0 0.0
2016-Dec-04 04:34N 52°02' E 005°07'0 0.0
2016-Dec-04 03:34N 52°02' E 005°07'0 0.0
2016-Dec-04 02:34N 52°02' E 005°07'0 0.0
2016-Dec-04 01:34N 52°02' E 005°07'0 0.0
2016-Dec-04 00:34N 52°02' E 005°07'0 0.0
2016-Dec-03 23:33N 52°02' E 005°07'0 0.1
2016-Dec-03 22:34N 52°02' E 005°07'0 0.0
2016-Dec-03 21:34N 52°02' E 005°07'0 0.0
2016-Dec-03 20:33N 52°02' E 005°07'3 2.5
2016-Dec-03 19:32N 52°00' E 005°10'6 5.7
2016-Dec-03 18:29N 51°58' E 005°19'6 6.3
2016-Dec-03 17:30N 51°54' E 005°27'3 3.1
2016-Dec-03 16:33N 51°54' E 005°32'10 9.6
2016-Dec-03 15:33N 51°53' E 005°47'7 7.4
2016-Dec-03 14:33N 51°52' E 005°59'9 8.7
2016-Dec-03 13:33N 51°50' E 006°13'9 8.5
2016-Dec-03 12:33N 51°45' E 006°25'8 7.8
2016-Dec-03 11:33N 51°39' E 006°33'6 6.3
2016-Dec-03 10:34N 51°35' E 006°39'39 2.8
2016-Dec-02 20:32N 50°58' E 006°59'8 6.2
2016-Dec-02 19:15N 50°50' E 006°59'  
2016-Nov-30 12:23N 49°23' E 008°30'6 7.2
2016-Nov-30 11:33N 49°17' E 008°28'9 9.1
2016-Nov-30 10:34N 49°09' E 008°22'8 8.1
2016-Nov-30 09:33N 49°01' E 008°18'0 0.0
2016-Nov-30 08:25N 49°01' E 008°18'0 0.0
2016-Nov-30 07:32N 49°01' E 008°18'0 0.0
2016-Nov-30 05:33N 49°01' E 008°18'0 0.0
2016-Nov-30 04:33N 49°01' E 008°18'0 0.0
2016-Nov-30 03:33N 49°01' E 008°18'0 0.0
2016-Nov-30 02:33N 49°01' E 008°18'0 0.0
2016-Nov-30 01:31N 49°01' E 008°18'0 0.2
2016-Nov-30 00:34N 49°01' E 008°18'4 4.2
2016-Nov-29 23:33N 49°05' E 008°21'4 3.9
2016-Nov-29 22:33N 49°09' E 008°22'4 4.2
2016-Nov-29 21:33N 49°13' E 008°23'4 4.0
2016-Nov-29 20:32N 49°16' E 008°27'3 3.2
2016-Nov-29 19:26N 49°20' E 008°27'  
Track history (hours):
 
Tides and Currents Weather Stations Pressure Air Temp Water Temp Dewpoint Dewpoint Depression Visibility Wind Speed Wind Dir Waves Ship Positions

Fidato

Last reported at 2016-Dec-08 08:04 UTC. Time now 2016-Dec-09 05:51 UTC.
Position N 50°41' E 007°11'.

Length 135 m; draft 2.5 m.

Type: Ship. MMSI: 244670975.

Date/timePositionNaut miles runAvg speedWind from/ knotsBaromVisibWave heightAir tempDewpointWater temp
2016-Dec-08 08:04N 50°41' E 007°11'3 5.3
2016-Dec-08 07:33N 50°43' E 007°08'5 5.0
2016-Dec-08 06:33N 50°47' E 007°03'4 4.2
2016-Dec-08 05:29N 50°51' E 006°60'3 3.0
2016-Dec-08 04:33N 50°54' E 007°01'2 2.5
2016-Dec-08 03:34N 50°55' E 006°58'0 0.0
2016-Dec-08 02:32N 50°55' E 006°58'0 0.0
2016-Dec-08 01:31N 50°55' E 006°58'0 0.0
2016-Dec-08 00:30N 50°55' E 006°58'0 0.0
2016-Dec-07 23:29N 50°55' E 006°58'0 0.0
2016-Dec-07 22:32N 50°55' E 006°58'2 2.0
2016-Dec-07 21:32N 50°57' E 006°59'34 3.6
2016-Dec-07 12:07N 51°30' E 006°42'2 3.6
2016-Dec-07 11:32N 51°32' E 006°41'4 3.6
2016-Dec-07 10:32N 51°34' E 006°37'5 5.3
2016-Dec-07 09:33N 51°39' E 006°36'6 5.5
2016-Dec-07 08:32N 51°42' E 006°28'5 4.9
2016-Dec-07 07:33N 51°45' E 006°23'6 6.5
2016-Dec-07 06:33N 51°50' E 006°15'6 6.3
2016-Dec-07 05:34N 51°51' E 006°05'6 6.4
2016-Dec-07 04:33N 51°56' E 005°58'3 3.2
2016-Dec-07 03:33N 51°58' E 005°55'0 0.0
2016-Dec-07 02:33N 51°58' E 005°55'0 0.0
2016-Dec-07 01:34N 51°58' E 005°55'0 0.0
2016-Dec-07 00:34N 51°58' E 005°55'0 0.0
2016-Dec-06 23:34N 51°58' E 005°55'0 0.0
2016-Dec-06 22:33N 51°58' E 005°55'0 0.0
2016-Dec-06 21:33N 51°58' E 005°55'1 1.5
2016-Dec-06 20:33N 51°59' E 005°53'10 4.9
2016-Dec-06 18:34N 51°56' E 005°37'7 7.1
2016-Dec-06 17:30N 51°59' E 005°26'4 3.9
2016-Dec-06 16:34N 51°58' E 005°20'2 1.7
2016-Dec-06 15:34N 51°58' E 005°18'8 7.6
2016-Dec-06 14:34N 52°02' E 005°07'8 7.7
2016-Dec-06 13:33N 52°09' E 005°01'8 7.7
2016-Dec-06 12:33N 52°16' E 005°01'7 7.2
2016-Dec-06 11:33N 52°23' E 004°56'7 7.3
2016-Dec-06 10:33N 52°26' E 004°45'6 5.5
2016-Dec-06 09:33N 52°28' E 004°37'1 1.3
2016-Dec-06 08:33N 52°28' E 004°35'0 0.1
2016-Dec-06 07:33N 52°28' E 004°35'0 0.1
2016-Dec-06 06:33N 52°28' E 004°35'1 0.5
2016-Dec-06 05:33N 52°28' E 004°36'0 0.0
2016-Dec-06 04:33N 52°28' E 004°36'0 0.0
2016-Dec-06 03:33N 52°28' E 004°36'0 0.0
2016-Dec-06 02:33N 52°28' E 004°36'0 0.0
2016-Dec-06 01:33N 52°28' E 004°36'0 0.0
2016-Dec-06 00:33N 52°28' E 004°36'0 0.0
2016-Dec-05 23:33N 52°28' E 004°36'0 0.0
2016-Dec-05 22:33N 52°28' E 004°36'0 0.0
2016-Dec-05 21:33N 52°28' E 004°36'0 0.0
2016-Dec-05 20:33N 52°28' E 004°36'0 0.0
2016-Dec-05 19:33N 52°28' E 004°36'0 0.0
2016-Dec-05 18:33N 52°28' E 004°36'1 0.5
2016-Dec-05 17:33N 52°28' E 004°37'0 0.3
2016-Dec-05 16:33N 52°28' E 004°37'1 1.1
2016-Dec-05 15:33N 52°28' E 004°39'7 7.2
2016-Dec-05 14:34N 52°25' E 004°50'2 1.6
2016-Dec-05 13:33N 52°24' E 004°52'0 0.0
2016-Dec-05 12:34N 52°24' E 004°52'0 0.1
2016-Dec-05 11:34N 52°24' E 004°52'0 0.1
2016-Dec-05 10:34N 52°25' E 004°52'0 0.0
2016-Dec-05 09:33N 52°25' E 004°52'0 0.0
2016-Dec-05 08:33N 52°25' E 004°52'0 0.2
2016-Dec-05 07:33N 52°25' E 004°52'0 0.0
2016-Dec-05 06:34N 52°25' E 004°52'0 0.0
2016-Dec-05 05:34N 52°25' E 004°52'0 0.0
2016-Dec-05 04:33N 52°25' E 004°52'0 0.0
2016-Dec-05 03:34N 52°25' E 004°52'0 0.0
2016-Dec-05 02:34N 52°25' E 004°52'0 0.0
2016-Dec-05 01:33N 52°25' E 004°52'0 0.0
2016-Dec-05 00:33N 52°25' E 004°52'0 0.0
2016-Dec-04 23:34N 52°25' E 004°52'0 0.0
2016-Dec-04 22:34N 52°25' E 004°52'0 0.0
2016-Dec-04 21:34N 52°25' E 004°52'0 0.0
2016-Dec-04 20:34N 52°25' E 004°52'0 0.0
2016-Dec-04 19:33N 52°25' E 004°52'0 0.0
2016-Dec-04 18:34N 52°25' E 004°52'0 0.0
2016-Dec-04 17:34N 52°25' E 004°52'0 0.0
2016-Dec-04 16:33N 52°25' E 004°52'0 0.0
2016-Dec-04 15:34N 52°25' E 004°52'0 0.0
2016-Dec-04 14:34N 52°25' E 004°52'0 0.0
2016-Dec-04 13:33N 52°25' E 004°52'0 0.0
2016-Dec-04 12:34N 52°25' E 004°52'5 4.9
2016-Dec-04 11:34N 52°21' E 004°58'7 7.0
2016-Dec-04 10:33N 52°14' E 005°01'7 6.7
2016-Dec-04 09:34N 52°08' E 005°03'7 6.5
2016-Dec-04 08:33N 52°02' E 005°07'0 0.0
2016-Dec-04 07:34N 52°02' E 005°07'0 0.0
2016-Dec-04 06:34N 52°02' E 005°07'0 0.0
2016-Dec-04 05:33N 52°02' E 005°07'0 0.0
2016-Dec-04 04:34N 52°02' E 005°07'0 0.0
2016-Dec-04 03:34N 52°02' E 005°07'0 0.0
2016-Dec-04 02:34N 52°02' E 005°07'0 0.0
2016-Dec-04 01:34N 52°02' E 005°07'0 0.0
2016-Dec-04 00:34N 52°02' E 005°07'0 0.0
2016-Dec-03 23:33N 52°02' E 005°07'0 0.1
2016-Dec-03 22:34N 52°02' E 005°07'0 0.0
2016-Dec-03 21:34N 52°02' E 005°07'0 0.0
2016-Dec-03 20:33N 52°02' E 005°07'3 2.5
2016-Dec-03 19:32N 52°00' E 005°10'6 5.7
2016-Dec-03 18:29N 51°58' E 005°19'6 6.3
2016-Dec-03 17:30N 51°54' E 005°27'3 3.1
2016-Dec-03 16:33N 51°54' E 005°32'10 9.6
2016-Dec-03 15:33N 51°53' E 005°47'7 7.4
2016-Dec-03 14:33N 51°52' E 005°59'9 8.7
2016-Dec-03 13:33N 51°50' E 006°13'9 8.5
2016-Dec-03 12:33N 51°45' E 006°25'8 7.8
2016-Dec-03 11:33N 51°39' E 006°33'6 6.3
2016-Dec-03 10:34N 51°35' E 006°39'39 2.8
2016-Dec-02 20:32N 50°58' E 006°59'8 6.2
2016-Dec-02 19:15N 50°50' E 006°59'  
2016-Nov-30 12:23N 49°23' E 008°30'6 7.2
2016-Nov-30 11:33N 49°17' E 008°28'9 9.1
2016-Nov-30 10:34N 49°09' E 008°22'8 8.1
2016-Nov-30 09:33N 49°01' E 008°18'0 0.0
2016-Nov-30 08:25N 49°01' E 008°18'0 0.0
2016-Nov-30 07:32N 49°01' E 008°18'0 0.0
2016-Nov-30 05:33N 49°01' E 008°18'0 0.0
2016-Nov-30 04:33N 49°01' E 008°18'0 0.0
2016-Nov-30 03:33N 49°01' E 008°18'0 0.0
2016-Nov-30 02:33N 49°01' E 008°18'0 0.0
2016-Nov-30 01:31N 49°01' E 008°18'0 0.2
2016-Nov-30 00:34N 49°01' E 008°18'4 4.2
2016-Nov-29 23:33N 49°05' E 008°21'4 3.9
2016-Nov-29 22:33N 49°09' E 008°22'4 4.2
2016-Nov-29 21:33N 49°13' E 008°23'4 4.0
2016-Nov-29 20:32N 49°16' E 008°27'3 3.2
2016-Nov-29 19:26N 49°20' E 008°27'  

Dump ship's entire track history